createdAt,value
2018-05-03T00:00:06.271Z,74.86
2018-05-03T00:01:06.261Z,74.57
2018-05-03T00:02:06.311Z,75.72
2018-05-03T00:03:06.248Z,75.81
2018-05-03T00:04:06.248Z,75.15
2018-05-03T00:05:06.234Z,75.15
2018-05-03T00:06:06.227Z,74.96
2018-05-03T00:07:06.220Z,75.34
2018-05-03T00:08:06.216Z,74.67
2018-05-03T00:09:06.210Z,75.15
2018-05-03T00:10:06.194Z,74.77
2018-05-03T00:11:06.193Z,75.24
2018-05-03T00:12:06.182Z,75.62
2018-05-03T00:13:06.175Z,76.01
2018-05-03T00:14:06.169Z,75.30
2018-05-03T00:15:06.161Z,75.53
2018-05-03T00:16:06.162Z,75.62
2018-05-03T00:17:06.169Z,75.81
2018-05-03T00:18:06.140Z,75.91
2018-05-03T00:19:06.128Z,75.40
2018-05-03T00:20:06.159Z,76.25
2018-05-03T00:21:06.117Z,76.06
2018-05-03T00:22:06.123Z,75.40
2018-05-03T00:23:06.105Z,76.16
2018-05-03T00:24:06.093Z,75.68
2018-05-03T00:25:06.088Z,76.54
2018-05-03T00:26:06.097Z,75.30
2018-05-03T00:27:06.099Z,75.34
2018-05-03T00:28:06.094Z,75.40
2018-05-03T00:29:06.058Z,75.72
2018-05-03T00:30:06.052Z,75.87
2018-05-03T00:31:06.045Z,75.96
2018-05-03T00:32:06.033Z,75.81
2018-05-03T00:33:06.029Z,75.72
2018-05-03T00:34:06.022Z,75.72
2018-05-03T00:35:06.011Z,76.20
2018-05-03T00:36:06.007Z,76.16
2018-05-03T00:37:06.007Z,76.64
2018-05-03T00:38:05.988Z,76.54
2018-05-03T00:39:05.980Z,76.86
2018-05-03T00:40:05.979Z,76.01
2018-05-03T00:41:05.970Z,76.06
2018-05-03T00:42:05.957Z,75.34
2018-05-03T00:43:05.954Z,75.62
2018-05-03T00:44:05.946Z,75.24
2018-05-03T00:45:05.936Z,74.96
2018-05-03T00:46:05.927Z,75.72
2018-05-03T00:47:05.921Z,76.01
2018-05-03T00:48:05.919Z,76.20
2018-05-03T00:49:05.910Z,75.01
2018-05-03T00:50:05.904Z,75.72
2018-05-03T00:51:05.896Z,75.68
2018-05-03T00:52:05.889Z,75.34
2018-05-03T00:53:05.878Z,75.68
2018-05-03T00:54:05.870Z,75.30
2018-05-03T00:55:05.866Z,75.24
2018-05-03T00:56:05.856Z,75.30
2018-05-03T00:57:05.852Z,75.43
2018-05-03T00:58:05.843Z,75.81
2018-05-03T00:59:05.919Z,75.11
2018-05-03T01:00:05.826Z,76.16
2018-05-03T01:01:05.819Z,75.87
2018-05-03T01:02:05.813Z,75.78
2018-05-03T01:03:05.805Z,75.68
2018-05-03T01:04:05.794Z,75.49
2018-05-03T01:05:05.788Z,76.16
2018-05-03T01:06:05.780Z,75.78
2018-05-03T01:07:05.773Z,76.35
2018-05-03T01:08:05.774Z,76.25
2018-05-03T01:09:05.761Z,76.73
2018-05-03T01:10:05.752Z,76.16
2018-05-03T01:11:05.741Z,76.35
2018-05-03T01:12:05.735Z,76.73
2018-05-03T01:13:05.735Z,76.25
2018-05-03T01:14:05.720Z,75.87
2018-05-03T01:15:05.713Z,76.16
2018-05-03T01:16:05.709Z,77.01
2018-05-03T01:17:05.700Z,76.54
2018-05-03T01:18:05.690Z,77.30
2018-05-03T01:19:05.681Z,77.87
2018-05-03T01:20:05.678Z,78.06
2018-05-03T01:21:05.672Z,77.49
2018-05-03T01:22:05.662Z,79.02
2018-05-03T01:23:05.656Z,77.87
2018-05-03T01:24:05.648Z,77.40
2018-05-03T01:25:05.638Z,77.69
2018-05-03T01:26:05.634Z,77.78
2018-05-03T01:27:05.626Z,77.30
2018-05-03T01:28:05.618Z,77.69
2018-05-03T01:29:05.611Z,77.69
2018-05-03T01:30:05.600Z,77.30
2018-05-03T01:31:05.593Z,78.44
2018-05-03T01:32:05.586Z,78.25
2018-05-03T01:33:05.589Z,77.49
2018-05-03T01:34:05.569Z,77.69
2018-05-03T01:35:05.566Z,77.40
2018-05-03T01:36:05.562Z,78.54
2018-05-03T01:37:05.549Z,79.02
2018-05-03T01:38:05.545Z,77.97
2018-05-03T01:39:05.531Z,77.49
2018-05-03T01:40:05.526Z,79.40
2018-05-03T01:41:05.515Z,79.02
2018-05-03T01:42:05.514Z,79.68
2018-05-03T01:43:05.508Z,79.11
2018-05-03T01:44:05.495Z,78.83
2018-05-03T01:45:05.486Z,79.64
2018-05-03T01:46:05.476Z,80.35
2018-05-03T01:47:05.480Z,80.22
2018-05-03T01:48:05.468Z,79.74
2018-05-03T01:49:05.458Z,80.02
2018-05-03T01:50:05.451Z,79.83
2018-05-03T01:51:05.444Z,80.12
2018-05-03T01:52:05.433Z,80.88
2018-05-03T01:53:05.424Z,81.07
2018-05-03T01:54:05.424Z,81.17
2018-05-03T01:55:05.409Z,80.41
2018-05-03T01:56:05.462Z,80.31
2018-05-03T01:57:05.399Z,80.88
2018-05-03T01:58:05.397Z,80.60
2018-05-03T01:59:05.383Z,80.60
2018-05-03T02:00:05.370Z,80.02
2018-05-03T02:01:05.373Z,79.83
2018-05-03T02:02:05.360Z,80.12
2018-05-03T02:03:05.361Z,80.88
2018-05-03T02:04:05.345Z,79.93
2018-05-03T02:05:05.334Z,79.93
2018-05-03T02:06:05.327Z,79.55
2018-05-03T02:07:05.317Z,79.74
2018-05-03T02:08:05.312Z,79.74
2018-05-03T02:09:05.307Z,80.22
2018-05-03T02:10:05.299Z,80.50
2018-05-03T02:11:05.291Z,80.22
2018-05-03T02:12:05.284Z,79.36
2018-05-03T02:13:05.275Z,78.88
2018-05-03T02:14:05.264Z,80.69
2018-05-03T02:15:05.259Z,79.36
2018-05-03T02:16:05.254Z,80.31
2018-05-03T02:17:05.245Z,80.98
2018-05-03T02:18:05.236Z,82.41
2018-05-03T02:19:05.227Z,83.17
2018-05-03T02:20:05.248Z,82.89
2018-05-03T02:21:05.213Z,81.84
2018-05-03T02:22:05.205Z,81.26
2018-05-03T02:23:05.201Z,80.69
2018-05-03T02:24:05.195Z,81.74
2018-05-03T02:25:05.181Z,82.41
2018-05-03T02:26:05.173Z,84.98
2018-05-03T02:27:05.165Z,83.55
2018-05-03T02:28:05.162Z,83.26
2018-05-03T02:29:05.153Z,83.07
2018-05-03T02:30:05.150Z,84.60
2018-05-03T02:31:05.150Z,83.74
2018-05-03T02:32:05.127Z,83.74
2018-05-03T02:33:05.138Z,84.50
2018-05-03T02:34:05.110Z,84.41
2018-05-03T02:35:05.108Z,84.41
2018-05-03T02:36:05.100Z,85.46
2018-05-03T02:37:05.091Z,85.36
2018-05-03T02:38:05.083Z,84.88
2018-05-03T02:39:05.075Z,87.46
2018-05-03T02:40:05.069Z,85.36
2018-05-03T02:41:05.057Z,85.36
2018-05-03T02:42:05.061Z,85.17
2018-05-03T02:43:05.045Z,83.55
2018-05-03T02:44:05.037Z,84.03
2018-05-03T02:45:05.040Z,83.55
2018-05-03T02:46:05.024Z,84.79
2018-05-03T02:47:05.015Z,85.27
2018-05-03T02:48:05.010Z,84.88
2018-05-03T02:49:05.000Z,86.03
2018-05-03T02:50:04.989Z,84.60
2018-05-03T02:51:04.986Z,86.41
2018-05-03T02:52:04.974Z,87.74
2018-05-03T02:53:04.968Z,85.17
2018-05-03T02:54:04.978Z,85.17
2018-05-03T02:55:04.954Z,85.93
2018-05-03T02:56:04.945Z,85.74
2018-05-03T02:57:04.937Z,86.41
2018-05-03T02:58:04.930Z,84.50
2018-05-03T02:59:04.929Z,86.41
2018-05-03T03:00:04.919Z,85.64
2018-05-03T03:01:04.908Z,85.64
2018-05-03T03:02:04.901Z,86.32
2018-05-03T03:03:04.894Z,87.27
2018-05-03T03:04:04.881Z,86.03
2018-05-03T03:05:04.879Z,86.22
2018-05-03T03:06:04.881Z,85.64
2018-05-03T03:07:04.858Z,86.32
2018-05-03T03:08:04.850Z,86.69
2018-05-03T03:09:04.851Z,86.51
2018-05-03T03:10:04.845Z,86.51
2018-05-03T03:11:04.830Z,86.51
2018-05-03T03:12:04.824Z,85.93
2018-05-03T03:13:04.845Z,86.88
2018-05-03T03:14:04.808Z,87.84
2018-05-03T03:15:04.801Z,86.12
2018-05-03T03:16:04.795Z,86.22
2018-05-03T03:17:04.787Z,86.32
2018-05-03T03:18:04.784Z,87.07
2018-05-03T03:19:04.772Z,86.88
2018-05-03T03:20:04.761Z,86.26
2018-05-03T03:21:04.756Z,88.31
2018-05-03T03:22:04.759Z,86.60
2018-05-03T03:23:04.737Z,86.45
2018-05-03T03:24:04.735Z,87.07
2018-05-03T03:25:04.725Z,87.31
2018-05-03T03:26:04.717Z,86.45
2018-05-03T03:27:04.724Z,85.50
2018-05-03T03:28:04.701Z,88.26
2018-05-03T03:29:04.691Z,86.16
2018-05-03T03:30:04.689Z,87.02
2018-05-03T03:31:04.682Z,86.93
2018-05-03T03:32:04.673Z,87.02
2018-05-03T03:33:04.666Z,86.74
2018-05-03T03:34:04.654Z,86.83
2018-05-03T03:35:04.649Z,86.74
2018-05-03T03:36:04.641Z,85.97
2018-05-03T03:37:04.644Z,86.45
2018-05-03T03:38:04.630Z,86.36
2018-05-03T03:39:04.621Z,85.12
2018-05-03T03:40:04.614Z,87.02
2018-05-03T03:41:04.603Z,86.26
2018-05-03T03:42:04.596Z,86.93
2018-05-03T03:43:04.587Z,85.88
2018-05-03T03:44:04.582Z,86.36
2018-05-03T03:45:04.578Z,85.21
2018-05-03T03:46:04.571Z,86.93
2018-05-03T03:47:04.561Z,86.36
2018-05-03T03:48:04.549Z,86.36
2018-05-03T03:49:04.569Z,86.36
2018-05-03T03:50:04.536Z,86.93
2018-05-03T03:51:04.539Z,87.31
2018-05-03T03:52:04.526Z,85.97
2018-05-03T03:53:04.521Z,85.60
2018-05-03T03:54:04.509Z,86.45
2018-05-03T03:55:04.498Z,87.69
2018-05-03T03:56:04.491Z,86.74
2018-05-03T03:57:04.485Z,85.97
2018-05-03T03:58:04.484Z,87.02
2018-05-03T03:59:04.559Z,86.45
2018-05-03T04:00:04.463Z,86.07
2018-05-03T04:01:04.454Z,86.36
2018-05-03T04:02:04.448Z,86.74
2018-05-03T04:03:04.442Z,87.31
2018-05-03T04:04:04.430Z,85.21
2018-05-03T04:05:04.432Z,86.36
2018-05-03T04:06:04.422Z,86.45
2018-05-03T04:07:04.415Z,86.55
2018-05-03T04:08:04.413Z,87.12
2018-05-03T04:09:04.397Z,84.74
2018-05-03T04:10:04.389Z,86.93
2018-05-03T04:11:04.387Z,85.97
2018-05-03T04:12:04.374Z,86.93
2018-05-03T04:13:04.370Z,84.92
2018-05-03T04:14:04.369Z,87.60
2018-05-03T04:15:04.351Z,87.31
2018-05-03T04:16:04.347Z,87.21
2018-05-03T04:17:04.338Z,86.45
2018-05-03T04:18:04.343Z,86.07
2018-05-03T04:19:04.325Z,86.65
2018-05-03T04:20:04.316Z,86.65
2018-05-03T04:21:04.309Z,86.16
2018-05-03T04:22:04.336Z,85.88
2018-05-03T04:23:04.289Z,85.41
2018-05-03T04:24:04.281Z,85.84
2018-05-03T04:25:04.282Z,86.07
2018-05-03T04:26:04.273Z,86.98
2018-05-03T04:27:04.264Z,84.88
2018-05-03T04:28:04.256Z,86.32
2018-05-03T04:29:04.248Z,85.17
2018-05-03T04:30:04.239Z,84.50
2018-05-03T04:31:04.229Z,84.22
2018-05-03T04:32:04.227Z,85.74
2018-05-03T04:33:04.221Z,84.79
2018-05-03T04:34:04.212Z,84.69
2018-05-03T04:35:04.206Z,85.74
2018-05-03T04:36:04.195Z,85.27
2018-05-03T04:37:04.185Z,84.79
2018-05-03T04:38:04.191Z,85.84
2018-05-03T04:39:04.174Z,86.03
2018-05-03T04:40:04.167Z,84.69
2018-05-03T04:41:04.159Z,84.50
2018-05-03T04:42:04.152Z,85.55
2018-05-03T04:43:04.140Z,84.03
2018-05-03T04:44:04.136Z,87.74
2018-05-03T04:45:04.128Z,85.27
2018-05-03T04:46:04.127Z,83.74
2018-05-03T04:47:04.115Z,85.17
2018-05-03T04:48:04.105Z,86.22
2018-05-03T04:49:04.096Z,84.31
2018-05-03T04:50:04.086Z,84.41
2018-05-03T04:51:04.086Z,84.79
2018-05-03T04:52:04.071Z,86.69
2018-05-03T04:53:04.066Z,84.69
2018-05-03T04:54:04.122Z,86.22
2018-05-03T04:55:04.056Z,85.36
2018-05-03T04:56:04.041Z,86.32
2018-05-03T04:57:04.034Z,85.55
2018-05-03T04:58:04.028Z,86.12
2018-05-03T04:59:04.033Z,86.22
2018-05-03T05:00:04.017Z,86.88
2018-05-03T05:01:04.007Z,88.12
2018-05-03T05:02:04.003Z,87.27
2018-05-03T05:03:03.991Z,87.17
2018-05-03T05:04:03.980Z,88.03
2018-05-03T05:05:03.989Z,88.12
2018-05-03T05:06:03.974Z,87.65
2018-05-03T05:07:03.963Z,88.12
2018-05-03T05:08:03.950Z,88.03
2018-05-03T05:09:03.943Z,88.03
2018-05-03T05:10:03.940Z,87.93
2018-05-03T05:11:03.927Z,88.41
2018-05-03T05:12:03.923Z,88.31
2018-05-03T05:13:03.916Z,87.84
2018-05-03T05:14:03.914Z,87.84
2018-05-03T05:15:03.897Z,87.65
2018-05-03T05:16:03.895Z,87.84
2018-05-03T05:17:03.883Z,87.93
2018-05-03T05:18:03.875Z,88.41
2018-05-03T05:19:03.886Z,88.12
2018-05-03T05:20:03.864Z,88.12
2018-05-03T05:21:03.854Z,88.31
2018-05-03T05:22:03.850Z,88.70
2018-05-03T05:23:03.841Z,88.31
2018-05-03T05:24:03.833Z,88.22
2018-05-03T05:25:03.821Z,87.36
2018-05-03T05:26:03.813Z,87.46
2018-05-03T05:27:03.809Z,87.84
2018-05-03T05:28:03.800Z,88.12
2018-05-03T05:29:03.795Z,87.65
2018-05-03T05:30:03.786Z,88.31
2018-05-03T05:31:03.778Z,88.12
2018-05-03T05:32:03.772Z,87.17
2018-05-03T05:33:03.762Z,88.41
2018-05-03T05:34:03.758Z,87.88
2018-05-03T05:35:03.749Z,88.64
2018-05-03T05:36:03.742Z,87.79
2018-05-03T05:37:03.735Z,88.07
2018-05-03T05:38:03.727Z,88.07
2018-05-03T05:39:03.792Z,88.64
2018-05-03T05:40:03.713Z,87.79
2018-05-03T05:41:03.705Z,87.60
2018-05-03T05:42:03.694Z,87.50
2018-05-03T05:43:03.697Z,87.69
2018-05-03T05:44:03.687Z,87.50
2018-05-03T05:45:03.675Z,87.60
2018-05-03T05:46:03.667Z,87.60
2018-05-03T05:47:03.663Z,87.50
2018-05-03T05:48:03.652Z,87.60
2018-05-03T05:49:03.647Z,87.79
2018-05-03T05:50:03.640Z,87.12
2018-05-03T05:51:03.755Z,87.60
2018-05-03T05:52:03.628Z,87.31
2018-05-03T05:53:03.617Z,87.60
2018-05-03T05:54:03.615Z,87.21
2018-05-03T05:55:03.603Z,86.45
2018-05-03T05:56:03.597Z,87.12
2018-05-03T05:57:03.590Z,87.54
2018-05-03T05:58:03.583Z,86.98
2018-05-03T05:59:03.640Z,86.11
2018-05-03T06:00:03.566Z,86.40
2018-05-03T06:01:03.564Z,86.30
2018-05-03T06:02:03.572Z,85.35
2018-05-03T06:03:03.550Z,85.45
2018-05-03T06:04:03.542Z,85.06
2018-05-03T06:05:03.532Z,85.35
2018-05-03T06:06:03.528Z,85.06
2018-05-03T06:07:03.532Z,84.97
2018-05-03T06:08:03.524Z,84.59
2018-05-03T06:09:03.509Z,84.11
2018-05-03T06:10:03.509Z,84.97
2018-05-03T06:11:03.494Z,84.49
2018-05-03T06:12:03.487Z,84.30
2018-05-03T06:13:03.480Z,84.01
2018-05-03T06:14:03.478Z,83.73
2018-05-03T06:15:03.469Z,83.83
2018-05-03T06:16:03.486Z,83.64
2018-05-03T06:17:03.456Z,83.87
2018-05-03T06:18:03.446Z,83.20
2018-05-03T06:19:03.461Z,82.15
2018-05-03T06:20:03.437Z,81.96
2018-05-03T06:21:03.435Z,82.00
2018-05-03T06:22:03.429Z,81.71
2018-05-03T06:23:03.419Z,81.81
2018-05-03T06:24:03.414Z,80.95
2018-05-03T06:25:03.411Z,81.43
2018-05-03T06:26:03.460Z,80.76
2018-05-03T06:27:03.432Z,80.76
2018-05-03T06:28:03.393Z,80.95
2018-05-03T06:29:03.386Z,80.51
2018-05-03T06:30:03.383Z,79.94
2018-05-03T06:31:03.376Z,79.36
2018-05-03T06:32:03.372Z,79.27
2018-05-03T06:33:03.362Z,79.46
2018-05-03T06:34:03.359Z,78.41
2018-05-03T06:35:03.352Z,78.79
2018-05-03T06:36:03.348Z,78.89
2018-05-03T06:37:03.345Z,78.60
2018-05-03T06:38:03.337Z,78.79
2018-05-03T06:39:03.331Z,77.65
2018-05-03T06:40:03.330Z,76.73
2018-05-03T06:41:03.324Z,76.73
2018-05-03T06:42:03.316Z,76.06
2018-05-03T06:43:03.315Z,75.78
2018-05-03T06:44:03.309Z,75.78
2018-05-03T06:45:03.306Z,76.16
2018-05-03T06:46:03.295Z,75.68
2018-05-03T06:47:03.289Z,75.68
2018-05-03T06:48:03.291Z,74.15
2018-05-03T06:49:03.286Z,73.77
2018-05-03T06:50:03.281Z,73.33
2018-05-03T06:51:03.279Z,73.04
2018-05-03T06:52:03.266Z,73.23
2018-05-03T06:53:03.267Z,72.18
2018-05-03T06:54:03.266Z,70.84
2018-05-03T06:55:03.260Z,72.02
2018-05-03T06:56:03.253Z,71.45
2018-05-03T06:57:03.249Z,70.11
2018-05-03T06:58:03.250Z,68.39
2018-05-03T06:59:03.246Z,68.49
2018-05-03T07:00:03.238Z,67.82
2018-05-03T07:01:03.240Z,66.19
2018-05-03T07:02:03.230Z,65.45
2018-05-03T07:03:03.229Z,64.79
2018-05-03T07:04:03.309Z,64.59
2018-05-03T07:05:03.218Z,63.83
2018-05-03T07:06:03.214Z,61.34
2018-05-03T07:07:03.213Z,61.54
2018-05-03T07:08:03.206Z,61.85
2018-05-03T07:09:03.205Z,62.14
2018-05-03T07:10:03.299Z,59.94
2018-05-03T07:11:03.199Z,59.48
2018-05-03T07:12:03.195Z,57.95
2018-05-03T07:13:03.209Z,57.41
2018-05-03T07:14:03.188Z,57.60
2018-05-03T07:15:03.185Z,56.45
2018-05-03T07:16:03.181Z,55.90
2018-05-03T07:17:03.181Z,55.42
2018-05-03T07:18:03.175Z,54.37
2018-05-03T07:19:03.175Z,54.66
2018-05-03T07:20:03.171Z,53.60
2018-05-03T07:21:03.242Z,53.82
2018-05-03T07:22:03.168Z,54.01
2018-05-03T07:23:03.170Z,53.82
2018-05-03T07:24:03.164Z,53.72
2018-05-03T07:25:03.211Z,52.89
2018-05-03T07:26:03.169Z,52.22
2018-05-03T07:27:03.166Z,52.40
2018-05-03T07:28:03.162Z,52.50
2018-05-03T07:29:03.162Z,53.27
2018-05-03T07:30:03.168Z,53.39
2018-05-03T07:31:03.257Z,53.78
2018-05-03T07:32:03.169Z,53.01
2018-05-03T07:33:03.239Z,53.30
2018-05-03T07:34:03.287Z,52.24
2018-05-03T07:35:03.185Z,52.14
2018-05-03T07:36:03.210Z,51.18
2018-05-03T07:37:03.259Z,51.57
2018-05-03T07:38:03.168Z,51.31
2018-05-03T07:39:03.167Z,50.44
2018-05-03T07:40:03.214Z,51.40
2018-05-03T07:41:03.167Z,51.11
2018-05-03T07:42:03.190Z,50.23
2018-05-03T07:43:03.185Z,50.90
2018-05-03T07:44:03.173Z,51.57
2018-05-03T07:45:03.204Z,52.72
2018-05-03T07:46:03.177Z,52.81
2018-05-03T07:47:03.176Z,52.62
2018-05-03T07:48:03.174Z,51.57
2018-05-03T07:49:03.180Z,51.95
2018-05-03T07:50:03.179Z,51.86
2018-05-03T07:51:03.188Z,51.95
2018-05-03T07:52:03.185Z,53.49
2018-05-03T07:53:03.185Z,52.34
2018-05-03T07:54:03.192Z,52.14
2018-05-03T07:55:03.192Z,52.72
2018-05-03T07:56:03.186Z,51.09
2018-05-03T07:57:03.190Z,50.73
2018-05-03T07:58:03.195Z,49.67
2018-05-03T07:59:03.203Z,50.15
2018-05-03T08:00:03.199Z,50.44
2018-05-03T08:01:03.204Z,50.82
2018-05-03T08:02:03.266Z,50.15
2018-05-03T08:03:03.211Z,49.29
2018-05-03T08:04:03.205Z,49.48
2018-05-03T08:05:03.208Z,49.38
2018-05-03T08:06:03.209Z,51.86
2018-05-03T08:07:03.212Z,51.37
2018-05-03T08:08:03.213Z,50.70
2018-05-03T08:09:03.211Z,50.13
2018-05-03T08:10:03.328Z,50.23
2018-05-03T08:11:03.420Z,52.62
2018-05-03T08:12:03.371Z,52.05
2018-05-03T08:13:03.437Z,51.93
2018-05-03T08:14:03.302Z,52.81
2018-05-03T08:15:03.608Z,54.45
2018-05-03T08:16:03.332Z,53.01
2018-05-03T08:17:03.351Z,52.91
2018-05-03T08:18:03.334Z,52.14
2018-05-03T08:19:03.336Z,52.62
2018-05-03T08:20:03.328Z,52.81
2018-05-03T08:21:04.368Z,53.03
2018-05-03T08:22:03.237Z,51.88
2018-05-03T08:23:03.235Z,52.84
2018-05-03T08:24:03.248Z,51.43
2018-05-03T08:25:03.243Z,50.27
2018-05-03T08:26:03.245Z,49.60
2018-05-03T08:27:03.247Z,51.04
2018-05-03T08:28:03.253Z,50.37
2018-05-03T08:29:03.251Z,50.40
2018-05-03T08:30:03.252Z,49.63
2018-05-03T08:31:03.260Z,48.93
2018-05-03T08:32:03.255Z,50.01
2018-05-03T08:33:03.265Z,48.93
2018-05-03T08:34:03.262Z,48.35
2018-05-03T08:35:03.267Z,49.72
2018-05-03T08:36:03.270Z,49.05
2018-05-03T08:37:03.280Z,48.18
2018-05-03T08:38:03.297Z,47.03
2018-05-03T08:39:03.282Z,48.28
2018-05-03T08:40:03.287Z,48.97
2018-05-03T08:41:03.293Z,48.21
2018-05-03T08:42:03.316Z,47.82
2018-05-03T08:43:03.296Z,46.86
2018-05-03T08:44:03.300Z,46.19
2018-05-03T08:45:03.304Z,46.31
2018-05-03T08:46:03.307Z,46.40
2018-05-03T08:47:03.314Z,46.40
2018-05-03T08:48:03.317Z,46.40
2018-05-03T08:49:03.319Z,45.73
2018-05-03T08:50:03.332Z,46.33
2018-05-03T08:51:03.327Z,44.31
2018-05-03T08:52:03.335Z,45.07
2018-05-03T08:53:03.337Z,44.59
2018-05-03T08:54:03.342Z,44.59
2018-05-03T08:55:03.349Z,44.11
2018-05-03T08:56:03.350Z,42.97
2018-05-03T08:57:03.352Z,43.07
2018-05-03T08:58:03.360Z,44.06
2018-05-03T08:59:03.367Z,43.12
2018-05-03T09:00:03.372Z,41.96
2018-05-03T09:01:03.376Z,41.67
2018-05-03T09:02:03.383Z,41.50
2018-05-03T09:03:03.386Z,42.18
2018-05-03T09:04:03.389Z,40.42
2018-05-03T09:05:03.399Z,39.26
2018-05-03T09:06:03.406Z,39.62
2018-05-03T09:07:03.412Z,41.44
2018-05-03T09:08:03.417Z,41.80
2018-05-03T09:09:03.426Z,42.38
2018-05-03T09:10:03.429Z,42.67
2018-05-03T09:11:03.431Z,41.72
2018-05-03T09:12:03.441Z,41.92
2018-05-03T09:13:03.448Z,41.44
2018-05-03T09:14:03.454Z,40.78
2018-05-03T09:15:03.459Z,40.20
2018-05-03T09:16:03.459Z,39.24
2018-05-03T09:17:03.468Z,38.85
2018-05-03T09:18:03.515Z,38.08
2018-05-03T09:19:03.481Z,37.31
2018-05-03T09:20:03.487Z,37.01
2018-05-03T09:21:03.490Z,37.68
2018-05-03T09:22:03.499Z,37.27
2018-05-03T09:23:03.502Z,38.79
2018-05-03T09:24:03.506Z,39.95
2018-05-03T09:25:03.511Z,39.26
2018-05-03T09:26:03.518Z,40.24
2018-05-03T09:27:03.524Z,39.56
2018-05-03T09:28:03.529Z,38.70
2018-05-03T09:29:03.536Z,39.56
2018-05-03T09:30:03.540Z,40.45
2018-05-03T09:31:03.549Z,38.54
2018-05-03T09:32:03.557Z,39.22
2018-05-03T09:33:03.564Z,38.85
2018-05-03T09:34:03.564Z,38.85
2018-05-03T09:35:03.571Z,37.79
2018-05-03T09:36:03.578Z,35.96
2018-05-03T09:37:03.580Z,38.08
2018-05-03T09:38:03.587Z,37.79
2018-05-03T09:39:03.658Z,37.02
2018-05-03T09:40:03.599Z,38.08
2018-05-03T09:41:03.608Z,40.51
2018-05-03T09:42:03.613Z,39.66
2018-05-03T09:43:03.619Z,38.12
2018-05-03T09:44:03.696Z,37.37
2018-05-03T09:45:03.627Z,35.34
2018-05-03T09:46:03.638Z,33.91
2018-05-03T09:47:03.645Z,32.56
2018-05-03T09:48:03.652Z,30.72
2018-05-03T09:49:03.659Z,29.25
2018-05-03T09:50:03.664Z,30.22
2018-05-03T09:51:03.671Z,31.17
2018-05-03T09:52:03.676Z,30.98
2018-05-03T09:53:03.686Z,30.49
2018-05-03T09:54:03.691Z,32.52
2018-05-03T09:55:03.699Z,30.96
2018-05-03T09:56:03.704Z,30.10
2018-05-03T09:57:03.711Z,30.96
2018-05-03T09:58:03.717Z,30.77
2018-05-03T09:59:03.725Z,30.19
2018-05-03T10:00:03.724Z,30.10
2018-05-03T10:01:03.736Z,30.67
2018-05-03T10:02:03.743Z,30.87
2018-05-03T10:03:03.746Z,33.29
2018-05-03T10:04:03.753Z,34.16
2018-05-03T10:05:03.755Z,32.43
2018-05-03T10:06:03.762Z,33.40
2018-05-03T10:07:03.780Z,31.94
2018-05-03T10:08:03.787Z,31.17
2018-05-03T10:09:03.779Z,32.91
2018-05-03T10:10:03.784Z,32.62
2018-05-03T10:11:03.827Z,32.23
2018-05-03T10:12:03.795Z,32.81
2018-05-03T10:13:03.860Z,33.29
2018-05-03T10:14:03.808Z,33.29
2018-05-03T10:15:03.813Z,32.43
2018-05-03T10:16:03.821Z,32.06
2018-05-03T10:17:03.835Z,30.01
2018-05-03T10:18:03.834Z,30.69
2018-05-03T10:19:03.835Z,31.07
2018-05-03T10:20:03.845Z,30.98
2018-05-03T10:21:03.849Z,30.00
2018-05-03T10:22:03.940Z,30.19
2018-05-03T10:23:03.865Z,32.59
2018-05-03T10:24:03.869Z,31.60
2018-05-03T10:25:03.881Z,32.67
2018-05-03T10:26:03.885Z,32.18
2018-05-03T10:27:03.888Z,33.34
2018-05-03T10:28:03.894Z,34.52
2018-05-03T10:29:03.902Z,33.45
2018-05-03T10:30:03.993Z,31.72
2018-05-03T10:31:03.920Z,32.87
2018-05-03T10:32:03.920Z,33.55
2018-05-03T10:33:03.932Z,34.13
2018-05-03T10:34:03.935Z,33.47
2018-05-03T10:35:03.942Z,33.10
2018-05-03T10:36:03.964Z,30.69
2018-05-03T10:37:03.954Z,31.86
2018-05-03T10:38:03.960Z,31.57
2018-05-03T10:39:03.968Z,31.57
2018-05-03T10:40:03.972Z,30.22
2018-05-03T10:41:03.997Z,31.59
2018-05-03T10:42:04.119Z,30.33
2018-05-03T10:43:03.996Z,29.83
2018-05-03T10:44:04.006Z,30.90
2018-05-03T10:45:04.012Z,30.12
2018-05-03T10:46:04.014Z,29.14
2018-05-03T10:47:04.022Z,29.13
2018-05-03T10:48:04.027Z,31.17
2018-05-03T10:49:04.091Z,30.88
2018-05-03T10:50:04.041Z,30.51
2018-05-03T10:51:04.058Z,29.66
2018-05-03T10:52:04.052Z,29.67
2018-05-03T10:53:04.066Z,28.33
2018-05-03T10:54:04.074Z,26.77
2018-05-03T10:55:04.079Z,27.62
2018-05-03T10:56:04.091Z,27.81
2018-05-03T10:57:04.100Z,27.23
2018-05-03T10:58:04.103Z,28.66
2018-05-03T10:59:04.107Z,30.32
2018-05-03T11:00:04.116Z,31.01
2018-05-03T11:01:04.120Z,29.46
2018-05-03T11:02:04.133Z,30.44
2018-05-03T11:03:04.140Z,30.27
2018-05-03T11:04:04.150Z,29.09
2018-05-03T11:05:04.158Z,29.38
2018-05-03T11:06:04.162Z,30.63
2018-05-03T11:07:04.171Z,30.05
2018-05-03T11:08:04.177Z,29.47
2018-05-03T11:09:04.189Z,30.05
2018-05-03T11:10:04.197Z,28.59
2018-05-03T11:11:04.214Z,30.72
2018-05-03T11:12:04.212Z,30.62
2018-05-03T11:13:04.216Z,30.24
2018-05-03T11:14:04.223Z,29.75
2018-05-03T11:15:04.254Z,29.25
2018-05-03T11:16:04.241Z,29.53
2018-05-03T11:17:04.247Z,29.52
2018-05-03T11:18:04.255Z,30.77
2018-05-03T11:19:04.267Z,30.10
2018-05-03T11:20:04.266Z,29.41
2018-05-03T11:21:04.274Z,30.76
2018-05-03T11:22:04.282Z,29.89
2018-05-03T11:23:04.289Z,30.27
2018-05-03T11:24:04.294Z,29.10
2018-05-03T11:25:04.339Z,29.77
2018-05-03T11:26:04.390Z,30.15
2018-05-03T11:27:04.322Z,31.03
2018-05-03T11:28:04.326Z,29.49
2018-05-03T11:29:04.327Z,30.16
2018-05-03T11:30:04.336Z,28.52
2018-05-03T11:31:04.343Z,29.58
2018-05-03T11:32:04.348Z,29.69
2018-05-03T11:33:04.409Z,28.63
2018-05-03T11:34:04.369Z,29.31
2018-05-03T11:35:04.369Z,29.60
2018-05-03T11:36:04.372Z,30.87
2018-05-03T11:37:04.407Z,30.77
2018-05-03T11:38:04.383Z,30.21
2018-05-03T11:39:04.389Z,31.07
2018-05-03T11:40:04.404Z,30.30
2018-05-03T11:41:04.404Z,30.49
2018-05-03T11:42:04.410Z,30.30
2018-05-03T11:43:04.415Z,29.45
2018-05-03T11:44:04.426Z,28.59
2018-05-03T11:45:04.444Z,29.16
2018-05-03T11:46:04.431Z,29.36
2018-05-03T11:47:04.433Z,28.29
2018-05-03T11:48:04.439Z,30.03
2018-05-03T11:49:04.443Z,30.33
2018-05-03T11:50:04.452Z,28.18
2018-05-03T11:51:04.458Z,30.21
2018-05-03T11:52:04.464Z,29.55
2018-05-03T11:53:04.464Z,28.85
2018-05-03T11:54:04.471Z,29.72
2018-05-03T11:55:04.529Z,29.91
2018-05-03T11:56:04.486Z,29.22
2018-05-03T11:57:04.491Z,30.38
2018-05-03T11:58:04.496Z,31.33
2018-05-03T11:59:04.630Z,32.12
2018-05-03T12:00:04.509Z,31.45
2018-05-03T12:01:04.515Z,31.06
2018-05-03T12:02:04.521Z,31.63
2018-05-03T12:03:04.529Z,31.35
2018-05-03T12:04:04.533Z,31.93
2018-05-03T12:05:04.543Z,31.17
2018-05-03T12:06:05.610Z,30.59
2018-05-03T12:07:04.551Z,30.11
2018-05-03T12:08:04.556Z,30.32
2018-05-03T12:09:04.566Z,29.45
2018-05-03T12:10:04.575Z,30.41
2018-05-03T12:11:04.580Z,29.74
2018-05-03T12:12:04.588Z,29.55
2018-05-03T12:13:04.590Z,30.32
2018-05-03T12:14:04.601Z,30.22
2018-05-03T12:15:04.613Z,28.67
2018-05-03T12:16:04.610Z,30.88
2018-05-03T12:17:04.618Z,30.01
2018-05-03T12:18:04.627Z,31.27
2018-05-03T12:19:04.631Z,30.12
2018-05-03T12:20:04.637Z,29.55
2018-05-03T12:21:04.641Z,29.75
2018-05-03T12:22:04.655Z,28.30
2018-05-03T12:23:04.655Z,28.11
2018-05-03T12:24:04.657Z,27.42
2018-05-03T12:25:04.669Z,28.09
2018-05-03T12:26:04.676Z,29.16
2018-05-03T12:27:04.677Z,27.98
2018-05-03T12:28:04.685Z,30.03
2018-05-03T12:29:04.704Z,28.29
2018-05-03T12:30:04.704Z,30.22
2018-05-03T12:31:04.710Z,29.94
2018-05-03T12:32:04.722Z,29.66
2018-05-03T12:33:04.718Z,29.77
2018-05-03T12:34:04.744Z,29.69
2018-05-03T12:35:04.736Z,28.04
2018-05-03T12:36:04.743Z,27.17
2018-05-03T12:37:04.750Z,28.03
2018-05-03T12:38:04.761Z,27.25
2018-05-03T12:39:04.769Z,27.82
2018-05-03T12:40:04.777Z,27.51
2018-05-03T12:41:04.781Z,27.87
2018-05-03T12:42:04.789Z,30.08
2018-05-03T12:43:04.796Z,30.64
2018-05-03T12:44:04.799Z,31.03
2018-05-03T12:45:04.810Z,31.01
2018-05-03T12:46:04.813Z,30.13
2018-05-03T12:47:04.821Z,30.90
2018-05-03T12:48:04.819Z,31.18
2018-05-03T12:49:04.832Z,31.85
2018-05-03T12:50:04.838Z,32.04
2018-05-03T12:51:04.843Z,32.31
2018-05-03T12:52:04.845Z,32.21